Time;durP1;ratioP1;P1;durP2;ratioP2;P2;SDS_P1;SDS_P2;PMS_P1;PMS_P2;Temp;Humidity;BMP_temperature;BMP_pressure;BME280_temperature;BME280_humidity;BME280_pressure;Samples;Min_cycle;Max_cycle;Signal;HPM_P1;HPM_P2
2022/05/09 00:01:52;;;;;;;;;;;20.80;36.20;;;;;;21188630;27;19924;-71
2022/05/09 00:11:53;;;;;;;;;;;19.60;38.80;;;;;;21172679;28;20376;-67
2022/05/09 00:21:56;;;;;;;;;;;;;;;;;;21171564;28;19970;-62
2022/05/09 00:31:57;;;;;;;;;;;;;;;;;;21170878;28;20410;-63
2022/05/09 00:41:59;;;;;;;;;;;;;;;;;;21169774;28;19924;-68
2022/05/09 00:52:01;;;;;;;;;;;;;;;;;;21168751;28;19924;-63
2022/05/09 01:02:03;;;;;;;;;;;;;;;;;;21168629;28;19955;-62
2022/05/09 01:12:05;;;;;;;;;;;19.90;39.20;;;;;;21166869;28;19924;-67
2022/05/09 01:22:24;;;;;;;;;;;19.80;39.30;;;;;;21166239;28;20018;-66
2022/05/09 01:32:38;;;;;;;;;;;18.70;41.40;;;;;;21166220;28;19976;-68
2022/05/09 01:42:42;;;;;;;;;;;18.40;42.20;;;;;;21166015;28;19923;-62
2022/05/09 01:52:48;;;;;;;;;;;;;;;;;;21168066;28;19931;-63
2022/05/09 02:02:50;;;;;;;;;;;;;;;;;;21165412;28;20007;-69
2022/05/09 02:12:53;;;;;;;;;;;;;;;;;;21182204;28;19930;-71
2022/05/09 02:22:55;;;;;;;;;;;19.20;40.90;;;;;;21165803;28;20305;-71
2022/05/09 02:32:59;;;;;;;;;;;18.00;43.30;;;;;;21168038;28;19945;-67
2022/05/09 02:43:03;;;;;;;;;;;17.90;43.80;;;;;;21182110;28;19924;-72
2022/05/09 02:53:07;;;;;;;;;;;17.80;44.20;;;;;;21179559;28;19970;-71
2022/05/09 03:13:30;;;;;;;;;;;17.60;44.80;;;;;;21178678;28;19928;-71
2022/05/09 03:23:35;;;;;;;;;;;17.50;44.80;;;;;;21176823;28;19924;-72
2022/05/09 03:33:39;;;;;;;;;;;17.50;45.40;;;;;;21175918;28;19923;-71
2022/05/09 03:43:41;;;;;;;;;;;17.30;46.10;;;;;;21156703;28;19932;-69
2022/05/09 03:53:43;;;;;;;;;;;17.10;46.80;;;;;;21175724;28;19930;-71
2022/05/09 04:03:46;;;;;;;;;;;16.90;47.20;;;;;;21187986;27;19924;-71
2022/05/09 04:13:48;;;;;;;;;;;16.80;47.90;;;;;;21155308;28;19923;-68
2022/05/09 04:23:55;;;;;;;;;;;16.70;48.60;;;;;;21170799;28;20019;-72
2022/05/09 04:33:58;;;;;;;;;;;16.50;48.90;;;;;;21170074;28;20008;-71
2022/05/09 04:44:03;;;;;;;;;;;16.40;49.50;;;;;;21169906;28;19973;-72
2022/05/09 04:54:04;;;;;;;;;;;16.20;49.80;;;;;;21169390;28;19930;-70
2022/05/09 05:04:09;;;;;;;;;;;16.10;50.30;;;;;;21167947;28;19924;-72
2022/05/09 05:14:10;;;;;;;;;;;15.90;50.80;;;;;;21167298;28;19928;-64
2022/05/09 05:24:12;;;;;;;;;;;16.00;50.70;;;;;;21166355;28;19931;-73
2022/05/09 05:34:14;;;;;;;;;;;15.90;50.90;;;;;;21165793;28;20026;-70
2022/05/09 05:44:16;;;;;;;;;;;16.10;51.00;;;;;;21166117;28;19923;-63
2022/05/09 05:54:17;;;;;;;;;;;16.10;50.40;;;;;;21164704;28;19924;-65
2022/05/09 06:04:19;;;;;;;;;;;16.30;50.10;;;;;;21165099;28;19923;-72
2022/05/09 06:14:21;;;;;;;;;;;16.40;51.30;;;;;;21164140;28;20038;-71
2022/05/09 06:24:24;;;;;;;;;;;16.40;51.40;;;;;;21164719;28;20322;-71
2022/05/09 06:34:25;;;;;;;;;;;16.60;51.40;;;;;;21147376;28;20024;-72
2022/05/09 06:44:26;;;;;;;;;;;17.50;49.70;;;;;;21175555;28;20444;-69
2022/05/09 06:54:28;;;;;;;;;;;18.20;46.80;;;;;;21165042;28;19959;-68
2022/05/09 07:04:30;;;;;;;;;;;18.70;45.40;;;;;;21162324;28;20015;-71
2022/05/09 07:14:31;;;;;;;;;;;19.10;45.40;;;;;;21161251;28;19924;-69
2022/05/09 07:24:33;;;;;;;;;;;19.60;44.70;;;;;;21171902;28;20014;-70
2022/05/09 07:34:34;;;;;;;;;;;20.20;43.90;;;;;;21176761;28;20325;-61
2022/05/09 07:44:35;;;;;;;;;;;20.70;42.80;;;;;;21174692;28;19924;-71
2022/05/09 07:54:37;;;;;;;;;;;21.10;42.50;;;;;;21173244;28;20328;-64
2022/05/09 08:04:39;;;;;;;;;;;21.50;42.00;;;;;;21172966;28;20429;-66
2022/05/09 08:14:41;;;;;;;;;;;22.00;41.00;;;;;;21172136;28;19984;-66
2022/05/09 08:24:45;;;;;;;;;;;22.50;40.10;;;;;;21171050;28;20204;-68
2022/05/09 08:34:51;;;;;;;;;;;22.80;38.60;;;;;;21170703;28;19924;-71
2022/05/09 08:45:26;;;;;;;;;;;23.00;38.90;;;;;;21183655;27;20337;-71
2022/05/09 08:55:35;;;;;;;;;;;23.30;38.50;;;;;;20744458;28;19933;-72
2022/05/09 09:05:39;;;;;;;;;;;23.40;37.70;;;;;;20745233;28;19925;-69
2022/05/09 09:15:48;;;;;;;;;;;23.00;38.40;;;;;;20744071;28;20457;-70
2022/05/09 09:26:01;;;;;;;;;;;23.30;38.50;;;;;;20897262;28;20345;-64
2022/05/09 09:36:08;;;;;;;;;;;23.40;38.40;;;;;;21166760;28;20025;-66
2022/05/09 09:46:10;;;;;;;;;;;23.60;37.90;;;;;;21163935;28;19931;-69
2022/05/09 09:56:21;;;;;;;;;;;23.50;38.40;;;;;;21164771;28;19924;-66
2022/05/09 10:06:22;;;;;;;;;;;23.70;38.50;;;;;;21164890;28;20008;-63
2022/05/09 10:16:33;;;;;;;;;;;23.70;38.60;;;;;;21144733;28;19924;-59
2022/05/09 10:26:37;;;;;;;;;;;;;;;;;;21164914;28;19951;-63
2022/05/09 10:36:50;;;;;;;;;;;24.10;37.70;;;;;;21166857;28;19924;-63
2022/05/09 10:46:52;;;;;;;;;;;24.10;37.80;;;;;;21164532;28;19932;-63
2022/05/09 10:56:53;;;;;;;;;;;24.10;37.70;;;;;;21169625;28;19924;-61
2022/05/09 11:07:24;;;;;;;;;;;24.10;37.40;;;;;;21177198;28;19924;-64
2022/05/09 11:17:48;;;;;;;;;;;24.20;38.00;;;;;;21167865;28;20402;-61
2022/05/09 11:27:52;;;;;;;;;;;24.20;37.70;;;;;;21176420;28;19924;-64
2022/05/09 11:37:57;;;;;;;;;;;24.40;37.50;;;;;;21175157;28;19924;-63
2022/05/09 11:48:17;;;;;;;;;;;24.70;36.60;;;;;;21174148;28;19951;-62
2022/05/09 11:58:19;;;;;;;;;;;24.90;36.50;;;;;;21173437;28;20014;-76
2022/05/09 12:08:21;;;;;;;;;;;25.10;35.60;;;;;;21154443;28;19927;-70
2022/05/09 12:18:28;;;;;;;;;;;25.20;36.10;;;;;;21175594;28;19932;-69
2022/05/09 12:28:31;;;;;;;;;;;25.20;36.00;;;;;;21170614;28;19924;-72
2022/05/09 12:38:35;;;;;;;;;;;25.60;35.40;;;;;;21170309;28;19976;-70
2022/05/09 12:48:38;;;;;;;;;;;25.70;35.20;;;;;;21168814;28;19930;-69
2022/05/09 12:58:41;;;;;;;;;;;26.10;34.60;;;;;;21169834;28;19970;-71
2022/05/09 13:08:43;;;;;;;;;;;26.20;34.00;;;;;;21170701;28;19931;-69
2022/05/09 13:18:45;;;;;;;;;;;26.50;33.10;;;;;;21166673;28;20268;-71
2022/05/09 13:28:50;;;;;;;;;;;26.50;32.40;;;;;;21166676;28;19923;-70
2022/05/09 13:38:52;;;;;;;;;;;26.50;32.00;;;;;;21165949;28;19975;-71
2022/05/09 13:48:58;;;;;;;;;;;26.40;32.30;;;;;;21170892;28;19947;-70
2022/05/09 13:59:02;;;;;;;;;;;26.50;32.00;;;;;;21165205;28;19931;-70
2022/05/09 14:09:06;;;;;;;;;;;26.60;31.90;;;;;;21164629;28;20015;-70
2022/05/09 14:19:08;;;;;;;;;;;26.80;31.60;;;;;;21163690;28;20348;-70
2022/05/09 14:39:33;;;;;;;;;;;27.00;31.40;;;;;;21180483;28;19972;-63
2022/05/09 14:49:46;;;;;;;;;;;27.00;31.60;;;;;;21179214;28;19923;-62
2022/05/09 14:59:48;;;;;;;;;;;27.20;30.80;;;;;;21178507;28;19947;-63
2022/05/09 15:09:51;;;;;;;;;;;27.20;30.70;;;;;;21177328;28;19931;-75
2022/05/09 15:19:53;;;;;;;;;;;27.40;30.60;;;;;;21193686;27;19924;-68
2022/05/09 15:29:56;;;;;;;;;;;27.60;30.50;;;;;;21159206;28;19923;-62
2022/05/09 15:39:58;;;;;;;;;;;;;;;;;;21161718;28;19924;-62
2022/05/09 15:50:00;;;;;;;;;;;27.40;30.20;;;;;;21173649;28;20446;-63
2022/05/09 16:00:05;;;;;;;;;;;27.30;30.30;;;;;;21173427;28;20022;-63
2022/05/09 16:20:28;;;;;;;;;;;27.40;30.80;;;;;;21174659;28;19928;-60
2022/05/09 16:30:31;;;;;;;;;;;27.70;30.90;;;;;;21172022;28;19924;-62
2022/05/09 16:40:36;;;;;;;;;;;28.00;30.40;;;;;;21155415;28;19930;-63
2022/05/09 16:50:37;;;;;;;;;;;28.00;30.20;;;;;;21151366;28;20019;-65
2022/05/09 17:00:40;;;;;;;;;;;27.90;30.70;;;;;;21150962;28;19930;-70
2022/05/09 17:10:42;;;;;;;;;;;27.70;30.90;;;;;;21168097;28;20288;-64
2022/05/09 17:20:44;;;;;;;;;;;27.60;31.10;;;;;;21166971;28;19987;-60
2022/05/09 17:30:46;;;;;;;;;;;27.40;31.40;;;;;;21167519;28;20004;-68
2022/05/09 17:40:50;;;;;;;;;;;27.20;31.90;;;;;;21165989;28;19924;-62
2022/05/09 17:50:52;;;;;;;;;;;27.00;32.30;;;;;;21165598;28;19970;-67
2022/05/09 18:00:54;;;;;;;;;;;26.90;32.20;;;;;;21164458;28;19924;-68
2022/05/09 18:10:56;;;;;;;;;;;26.60;32.80;;;;;;21165931;28;20339;-66
2022/05/09 18:21:02;;;;;;;;;;;26.70;33.10;;;;;;21165070;28;20303;-65
2022/05/09 18:31:04;;;;;;;;;;;27.30;32.20;;;;;;21164976;28;19924;-68
2022/05/09 18:41:16;;;;;;;;;;;26.40;33.30;;;;;;21164041;28;19924;-61
2022/05/09 19:01:38;;;;;;;;;;;26.00;33.90;;;;;;21162717;28;19924;-61
2022/05/09 19:11:40;;;;;;;;;;;25.80;34.40;;;;;;21161314;28;20022;-59
2022/05/09 19:21:42;;;;;;;;;;;25.50;35.20;;;;;;21173510;28;19954;-60
2022/05/09 19:31:45;;;;;;;;;;;25.20;35.60;;;;;;21152667;28;20366;-60
2022/05/09 19:41:49;;;;;;;;;;;25.70;35.30;;;;;;21114532;27;19928;-59
2022/05/09 19:54:00;;;;;;;;;;;;;;;;;;21107107;28;20394;-63
2022/05/09 20:02:12;;;;;;;;;;;24.50;37.10;;;;;;21133488;28;19931;-63
2022/05/09 20:12:16;;;;;;;;;;;24.30;37.60;;;;;;21117160;28;19931;-64
2022/05/09 20:22:18;;;;;;;;;;;24.20;38.00;;;;;;21088209;28;20380;-62
2022/05/09 20:32:20;;;;;;;;;;;23.90;37.80;;;;;;21087180;28;20295;-67
2022/05/09 20:42:22;;;;;;;;;;;23.90;37.30;;;;;;21086020;28;19950;-66
2022/05/09 20:52:27;;;;;;;;;;;23.90;37.00;;;;;;21086244;28;19924;-65
2022/05/09 21:02:29;;;;;;;;;;;23.80;37.20;;;;;;21086506;28;20346;-64
2022/05/09 21:12:31;;;;;;;;;;;23.70;37.20;;;;;;21083206;28;19924;-63
2022/05/09 21:22:34;;;;;;;;;;;23.70;37.10;;;;;;21084016;28;20253;-62
2022/05/09 21:32:36;;;;;;;;;;;23.50;35.80;;;;;;21082559;28;20292;-63
2022/05/09 21:42:45;;;;;;;;;;;23.40;35.20;;;;;;21080512;28;19931;-62
2022/05/09 21:52:48;;;;;;;;;;;23.40;34.20;;;;;;21080930;28;19924;-63
2022/05/09 22:02:50;;;;;;;;;;;23.20;32.70;;;;;;21080081;28;20364;-64
2022/05/09 22:12:51;;;;;;;;;;;23.20;31.70;;;;;;21080328;28;20283;-62
2022/05/09 22:22:53;;;;;;;;;;;23.10;31.40;;;;;;21061804;28;19931;-62
2022/05/09 22:32:54;;;;;;;;;;;22.90;31.30;;;;;;21079360;28;19924;-61
2022/05/09 22:42:57;;;;;;;;;;;22.40;34.50;;;;;;21059978;28;20295;-61
2022/05/09 22:52:58;;;;;;;;;;;22.10;35.70;;;;;;21087638;28;19924;-62
2022/05/09 23:03:01;;;;;;;;;;;21.70;36.60;;;;;;21093825;28;19932;-62
2022/05/09 23:13:05;;;;;;;;;;;21.60;36.60;;;;;;21110167;28;19986;-63
2022/05/09 23:23:07;;;;;;;;;;;21.40;35.00;;;;;;21093285;28;19946;-61
2022/05/09 23:33:18;;;;;;;;;;;21.20;38.00;;;;;;21093103;28;20273;-63
2022/05/09 23:43:24;;;;;;;;;;;20.90;41.80;;;;;;21092585;28;20033;-62
2022/05/09 23:53:26;;;;;;;;;;;20.70;44.60;;;;;;21092017;28;20016;-61
